createdAt,value
2022-09-10T00:01:26.582Z,20.08
2022-09-10T00:03:56.639Z,20.07
2022-09-10T00:06:27.632Z,19.91
2022-09-10T00:08:57.588Z,19.88
2022-09-10T00:11:26.989Z,19.92
2022-09-10T00:13:55.106Z,19.97
2022-09-10T00:16:23.510Z,19.94
2022-09-10T00:18:51.667Z,19.92
2022-09-10T00:21:21.727Z,19.96
2022-09-10T00:23:51.404Z,19.91
2022-09-10T00:26:21.845Z,19.85
2022-09-10T00:28:51.558Z,19.87
2022-09-10T00:31:21.852Z,19.87
2022-09-10T00:33:51.115Z,19.89
2022-09-10T00:36:21.654Z,19.92
2022-09-10T00:38:51.840Z,19.90
2022-09-10T00:41:20.922Z,19.87
2022-09-10T00:43:54.803Z,19.88
2022-09-10T00:46:37.908Z,19.84
2022-09-10T00:49:14.661Z,19.77
2022-09-10T00:51:44.084Z,19.72
2022-09-10T00:54:15.343Z,19.65
2022-09-10T00:56:45.269Z,19.60
2022-09-10T00:59:18.831Z,19.59
2022-09-10T01:01:47.346Z,19.59
2022-09-10T01:04:15.638Z,19.64
2022-09-10T01:06:46.356Z,19.70
2022-09-10T01:09:16.166Z,19.65
2022-09-10T01:11:58.841Z,19.69
2022-09-10T01:14:44.855Z,19.60
2022-09-10T01:17:24.457Z,19.56
2022-09-10T01:20:36.103Z,19.54
2022-09-10T01:23:34.228Z,19.56
2022-09-10T01:26:14.120Z,19.58
2022-09-10T01:28:48.905Z,19.56
2022-09-10T01:31:24.959Z,19.51
2022-09-10T01:33:59.341Z,19.50
2022-09-10T01:36:32.635Z,19.36
2022-09-10T01:39:01.987Z,19.37
2022-09-10T01:41:29.978Z,19.36
2022-09-10T01:44:09.959Z,19.34
2022-09-10T01:46:51.955Z,19.27
2022-09-10T01:49:31.234Z,19.32
2022-09-10T01:52:15.243Z,19.29
2022-09-10T01:54:59.545Z,19.16
2022-09-10T01:57:35.827Z,19.15
2022-09-10T02:00:12.395Z,19.17
2022-09-10T02:02:49.424Z,19.09
2022-09-10T02:05:20.916Z,19.07
2022-09-10T02:07:59.677Z,19.08
2022-09-10T02:10:28.010Z,19.06
2022-09-10T02:12:56.655Z,19.08
2022-09-10T02:15:43.704Z,19.08
2022-09-10T02:18:20.745Z,19.04
2022-09-10T02:20:51.889Z,19.01
2022-09-10T02:23:23.531Z,18.94
2022-09-10T02:25:54.152Z,18.92
2022-09-10T02:28:28.620Z,18.87
2022-09-10T02:30:58.646Z,18.84
2022-09-10T02:33:27.803Z,18.78
2022-09-10T02:35:56.953Z,18.78
2022-09-10T02:38:25.161Z,18.70
2022-09-10T02:40:59.263Z,18.70
2022-09-10T02:43:27.437Z,18.70
2022-09-10T02:46:07.377Z,18.75
2022-09-10T02:48:38.786Z,18.73
2022-09-10T02:51:08.853Z,18.71
2022-09-10T02:53:38.528Z,18.66
2022-09-10T02:56:08.774Z,18.65
2022-09-10T02:58:38.146Z,18.51
2022-09-10T03:01:10.590Z,18.43
2022-09-10T03:03:40.286Z,18.44
2022-09-10T03:06:09.271Z,18.43
2022-09-10T03:08:37.462Z,18.45
2022-09-10T03:11:07.181Z,18.49
2022-09-10T03:13:35.558Z,18.49
2022-09-10T03:16:04.693Z,18.51
2022-09-10T03:18:36.373Z,18.53
2022-09-10T03:21:13.173Z,18.46
2022-09-10T03:23:41.579Z,18.46
2022-09-10T03:26:10.836Z,18.47
2022-09-10T03:28:39.467Z,18.46
2022-09-10T03:31:09.721Z,18.50
2022-09-10T03:33:46.105Z,18.51
2022-09-10T03:36:15.345Z,18.51
2022-09-10T03:38:45.197Z,18.54
2022-09-10T03:41:14.410Z,18.59
2022-09-10T03:43:42.521Z,18.52
2022-09-10T03:46:12.349Z,18.47
2022-09-10T03:48:44.872Z,18.53
2022-09-10T03:51:13.067Z,18.59
2022-09-10T03:53:41.209Z,18.45
2022-09-10T03:56:11.507Z,18.30
2022-09-10T03:58:41.124Z,18.41
2022-09-10T04:01:10.832Z,18.37
2022-09-10T04:03:44.307Z,18.36
2022-09-10T04:06:12.894Z,18.38
2022-09-10T04:08:43.389Z,18.36
2022-09-10T04:11:13.794Z,18.32
2022-09-10T04:13:42.969Z,18.20
2022-09-10T04:16:13.024Z,18.04
2022-09-10T04:18:41.954Z,17.91
2022-09-10T04:21:11.916Z,17.76
2022-09-10T04:23:42.355Z,17.71
2022-09-10T04:26:15.103Z,17.75
2022-09-10T04:28:45.408Z,17.76
2022-09-10T04:31:14.540Z,17.80
2022-09-10T04:33:42.648Z,17.83
2022-09-10T04:36:14.254Z,17.83
2022-09-10T04:38:43.500Z,17.83
2022-09-10T04:41:15.550Z,17.84
2022-09-10T04:43:44.754Z,17.81
2022-09-10T04:46:13.014Z,17.78
2022-09-10T04:48:43.623Z,17.78
2022-09-10T04:51:18.108Z,17.78
2022-09-10T04:53:52.767Z,17.81
2022-09-10T04:56:23.734Z,17.87
2022-09-10T04:58:51.844Z,17.83
2022-09-10T05:01:20.711Z,17.89
2022-09-10T05:03:52.464Z,17.85
2022-09-10T05:06:23.335Z,17.69
2022-09-10T05:08:51.833Z,17.69
2022-09-10T05:11:20.629Z,17.72
2022-09-10T05:13:49.455Z,17.79
2022-09-10T05:16:22.135Z,17.84
2022-09-10T05:18:50.349Z,17.93
2022-09-10T05:21:19.314Z,17.97
2022-09-10T05:23:49.065Z,17.90
2022-09-10T05:26:17.180Z,17.91
2022-09-10T05:28:45.300Z,17.98
2022-09-10T05:31:17.514Z,18.02
2022-09-10T05:33:46.710Z,18.07
2022-09-10T05:36:15.066Z,18.18
2022-09-10T05:38:45.581Z,18.28
2022-09-10T05:41:15.496Z,18.47
2022-09-10T05:43:50.035Z,18.53
2022-09-10T05:46:18.349Z,18.54
2022-09-10T05:48:50.528Z,18.64
2022-09-10T05:51:19.910Z,18.66
2022-09-10T05:53:50.027Z,18.65
2022-09-10T05:56:21.294Z,18.65
2022-09-10T05:58:49.964Z,18.66
2022-09-10T06:01:19.332Z,18.69
2022-09-10T06:03:47.584Z,18.81
2022-09-10T06:06:15.886Z,18.94
2022-09-10T06:08:52.478Z,19.08
2022-09-10T06:11:30.367Z,19.14
2022-09-10T06:13:58.566Z,19.24
2022-09-10T06:16:27.729Z,19.38
2022-09-10T06:18:57.362Z,19.42
2022-09-10T06:21:28.398Z,19.52
2022-09-10T06:23:58.401Z,19.58
2022-09-10T06:26:31.586Z,19.60
2022-09-10T06:29:05.188Z,19.63
2022-09-10T06:31:35.316Z,19.67
2022-09-10T06:34:03.935Z,19.69
2022-09-10T06:36:34.038Z,19.63
2022-09-10T06:39:03.587Z,19.64
2022-09-10T06:41:45.848Z,19.58
2022-09-10T06:44:32.950Z,19.64
2022-09-10T06:50:01.971Z,19.47
2022-09-10T06:52:32.675Z,19.67
2022-09-10T06:55:05.751Z,19.73
2022-09-10T06:57:43.850Z,19.75
2022-09-10T07:00:14.698Z,19.76
2022-09-10T07:02:46.019Z,19.68
2022-09-10T07:05:14.346Z,19.71
2022-09-10T07:07:43.463Z,19.71
2022-09-10T07:10:12.086Z,19.66
2022-09-10T07:12:41.856Z,19.55
2022-09-10T07:15:12.051Z,19.64
2022-09-10T07:17:40.416Z,19.59
2022-09-10T07:20:10.219Z,19.50
2022-09-10T07:22:45.963Z,19.48
2022-09-10T07:25:16.424Z,19.40
2022-09-10T07:28:04.697Z,19.41
2022-09-10T07:30:35.941Z,19.35
2022-09-10T07:33:04.311Z,19.25
2022-09-10T07:35:35.094Z,19.20
2022-09-10T07:38:03.610Z,19.17
2022-09-10T07:40:31.754Z,19.10
2022-09-10T07:43:00.269Z,19.03
2022-09-10T07:45:31.034Z,19.01
2022-09-10T07:48:02.860Z,18.98
2022-09-10T07:50:36.395Z,18.88
2022-09-10T07:53:05.019Z,18.85
2022-09-10T07:55:33.126Z,18.90
2022-09-10T07:58:01.837Z,18.96
2022-09-10T08:00:33.336Z,19.04
2022-09-10T08:03:06.691Z,19.04
2022-09-10T08:05:38.177Z,19.10
2022-09-10T08:08:07.167Z,19.09
2022-09-10T08:10:36.505Z,19.15
2022-09-10T08:13:04.542Z,19.24
2022-09-10T08:15:36.020Z,19.38
2022-09-10T08:18:04.917Z,19.44
2022-09-10T08:20:33.291Z,19.53
2022-09-10T08:23:02.335Z,19.64
2022-09-10T08:25:31.033Z,19.90
2022-09-10T08:27:59.065Z,20.05
2022-09-10T08:30:27.723Z,20.19
2022-09-10T08:32:57.634Z,20.35
2022-09-10T08:35:25.661Z,20.45
2022-09-10T08:37:54.562Z,20.48
2022-09-10T08:40:23.746Z,20.59
2022-09-10T08:42:53.651Z,20.64
2022-09-10T08:45:29.220Z,20.53
2022-09-10T08:48:04.228Z,20.53
2022-09-10T08:50:40.726Z,20.51
2022-09-10T08:53:25.925Z,20.56
2022-09-10T08:55:58.450Z,20.62
2022-09-10T08:58:31.000Z,20.54
2022-09-10T09:01:05.035Z,20.54
2022-09-10T09:03:39.166Z,20.59
2022-09-10T09:06:16.142Z,20.49
2022-09-10T09:08:48.413Z,20.50
2022-09-10T09:11:42.573Z,20.46
2022-09-10T09:14:52.369Z,20.44
2022-09-10T09:17:34.495Z,20.47
2022-09-10T09:20:15.435Z,20.48
2022-09-10T09:22:52.599Z,20.53
2022-09-10T09:25:31.944Z,20.68
2022-09-10T09:28:01.640Z,20.78
2022-09-10T09:30:42.094Z,20.69
2022-09-10T09:33:16.382Z,20.65
2022-09-10T09:35:52.595Z,20.70
2022-09-10T09:38:26.183Z,20.79
2022-09-10T09:41:00.023Z,20.88
2022-09-10T09:43:46.919Z,20.87
2022-09-10T09:46:17.812Z,20.96
2022-09-10T09:48:53.507Z,21.00
2022-09-10T09:51:26.145Z,21.02
2022-09-10T09:54:25.874Z,21.14
2022-09-10T09:56:50.925Z,21.24
2022-09-10T09:59:29.938Z,21.32
2022-09-10T10:02:06.398Z,21.34
2022-09-10T10:04:37.984Z,21.40
2022-09-10T10:07:12.653Z,21.41
2022-09-10T10:09:43.989Z,21.44
2022-09-10T10:12:21.014Z,21.52
2022-09-10T10:14:49.931Z,21.58
2022-09-10T10:17:39.271Z,21.69
2022-09-10T10:20:12.887Z,21.73
2022-09-10T10:22:43.376Z,21.81
2022-09-10T10:25:34.534Z,21.94
2022-09-10T10:28:03.106Z,22.13
2022-09-10T10:30:33.148Z,22.25
2022-09-10T10:33:04.686Z,22.40
2022-09-10T10:35:37.588Z,22.55
2022-09-10T10:38:26.128Z,22.48
2022-09-10T10:41:08.136Z,22.58
2022-09-10T10:43:48.508Z,22.57
2022-09-10T10:46:21.585Z,22.61
2022-09-10T10:49:03.837Z,22.95
2022-09-10T10:51:44.651Z,23.10
2022-09-10T10:54:37.907Z,23.29
2022-09-10T10:57:16.826Z,23.16
2022-09-10T10:59:55.610Z,23.05
2022-09-10T11:02:34.837Z,23.00
2022-09-10T11:05:16.927Z,22.94
2022-09-10T11:07:50.138Z,23.01
2022-09-10T11:10:27.001Z,22.99
2022-09-10T11:13:04.656Z,23.21
2022-09-10T11:15:38.166Z,23.42
2022-09-10T11:18:20.207Z,23.53
2022-09-10T11:20:58.231Z,23.51
2022-09-10T11:23:31.463Z,23.32
2022-09-10T11:26:05.873Z,23.48
2022-09-10T11:28:38.731Z,23.72
2022-09-10T11:31:12.629Z,23.82
2022-09-10T11:33:49.583Z,23.81
2022-09-10T11:36:26.245Z,23.97
2022-09-10T11:39:03.912Z,24.20
2022-09-10T11:41:36.873Z,24.32
2022-09-10T11:44:18.015Z,24.28
2022-09-10T11:46:51.413Z,24.13
2022-09-10T11:49:22.592Z,24.32
2022-09-10T11:51:51.513Z,24.62
2022-09-10T11:54:30.997Z,24.69
2022-09-10T11:57:06.622Z,24.61
2022-09-10T11:59:52.311Z,24.81
2022-09-10T12:02:47.462Z,24.33
2022-09-10T12:05:26.155Z,24.40
2022-09-10T12:08:00.004Z,24.69
2022-09-10T12:10:33.566Z,24.51
2022-09-10T12:13:08.788Z,24.62
2022-09-10T12:15:37.896Z,24.68
2022-09-10T12:18:13.672Z,24.88
2022-09-10T12:20:48.711Z,24.63
2022-09-10T12:23:19.236Z,24.96
2022-09-10T12:25:58.722Z,25.49
2022-09-10T12:29:12.375Z,25.70
2022-09-10T12:32:29.671Z,25.44
2022-09-10T12:35:46.625Z,25.71
2022-09-10T12:38:55.475Z,25.85
2022-09-10T12:41:55.965Z,25.72
2022-09-10T12:44:45.146Z,25.76
2022-09-10T12:47:40.111Z,26.19
2022-09-10T12:50:23.019Z,26.39
2022-09-10T12:53:23.375Z,26.51
2022-09-10T12:56:02.157Z,26.96
2022-09-10T12:58:54.344Z,26.50
2022-09-10T13:01:39.202Z,26.68
2022-09-10T13:04:24.587Z,26.93
2022-09-10T13:06:55.535Z,26.93
2022-09-10T13:09:27.527Z,27.42
2022-09-10T13:12:00.082Z,27.36
2022-09-10T13:14:31.698Z,27.02
2022-09-10T13:16:59.846Z,26.84
2022-09-10T13:19:52.089Z,26.99
2022-09-10T13:22:59.999Z,27.60
2022-09-10T13:25:36.826Z,27.91
2022-09-10T13:28:43.851Z,28.08
2022-09-10T13:31:19.376Z,28.28
2022-09-10T13:34:09.423Z,28.35
2022-09-10T13:36:52.893Z,28.00
2022-09-10T13:39:57.360Z,27.87
2022-09-10T13:42:39.243Z,27.40
2022-09-10T13:45:23.603Z,27.10
2022-09-10T13:47:58.762Z,26.74
2022-09-10T13:50:29.454Z,26.94
2022-09-10T13:53:01.678Z,27.06
2022-09-10T13:55:32.021Z,26.62
2022-09-10T13:58:05.485Z,26.95
2022-09-10T14:00:35.154Z,26.93
2022-09-10T14:03:03.341Z,27.35
2022-09-10T14:05:35.239Z,27.32
2022-09-10T14:08:09.009Z,27.62
2022-09-10T14:10:49.956Z,27.55
2022-09-10T14:13:24.240Z,27.23
2022-09-10T14:15:54.543Z,27.76
2022-09-10T14:18:32.688Z,28.22
2022-09-10T14:21:01.476Z,28.20
2022-09-10T14:23:31.169Z,28.36
2022-09-10T14:26:19.870Z,28.25
2022-09-10T14:28:52.879Z,28.32
2022-09-10T14:31:28.262Z,28.46
2022-09-10T14:33:57.545Z,28.31
2022-09-10T14:36:34.247Z,28.06
2022-09-10T14:39:07.394Z,28.34
2022-09-10T14:41:36.893Z,28.15
2022-09-10T14:44:29.725Z,28.50
2022-09-10T14:47:00.320Z,28.75
2022-09-10T14:49:30.474Z,28.48
2022-09-10T14:52:00.098Z,27.90
2022-09-10T14:54:31.000Z,27.89
2022-09-10T14:57:02.612Z,27.93
2022-09-10T14:59:33.409Z,27.68
2022-09-10T15:02:03.601Z,27.94
2022-09-10T15:04:31.781Z,27.88
2022-09-10T15:07:02.749Z,28.14
2022-09-10T15:09:32.185Z,27.56
2022-09-10T15:12:05.146Z,27.26
2022-09-10T15:14:33.684Z,27.13
2022-09-10T15:17:01.861Z,27.24
2022-09-10T15:19:29.886Z,27.47
2022-09-10T15:21:58.881Z,27.53
2022-09-10T15:24:28.367Z,27.20
2022-09-10T15:26:57.925Z,26.98
2022-09-10T15:29:26.216Z,26.73
2022-09-10T15:31:59.407Z,26.56
2022-09-10T15:34:27.404Z,26.43
2022-09-10T15:36:55.406Z,25.93
2022-09-10T15:39:23.435Z,25.69
2022-09-10T15:41:51.447Z,25.54
2022-09-10T15:44:23.049Z,25.36
2022-09-10T15:46:51.886Z,25.49
2022-09-10T15:49:19.992Z,25.77
2022-09-10T15:51:48.048Z,25.60
2022-09-10T15:54:16.238Z,25.55
2022-09-10T15:56:44.236Z,25.62
2022-09-10T15:59:12.244Z,25.54
2022-09-10T16:01:42.334Z,25.49
2022-09-10T16:04:10.951Z,25.36
2022-09-10T16:06:40.656Z,25.23
2022-09-10T16:09:10.904Z,25.30
2022-09-10T16:11:41.183Z,25.32
2022-09-10T16:14:12.567Z,25.34
2022-09-10T16:16:45.775Z,25.28
2022-09-10T16:19:14.284Z,25.18
2022-09-10T16:21:43.457Z,25.21
2022-09-10T16:24:11.638Z,24.99
2022-09-10T16:26:41.570Z,24.78
2022-09-10T16:29:15.613Z,24.77
2022-09-10T16:31:46.070Z,24.63
2022-09-10T16:34:17.513Z,24.65
2022-09-10T16:36:48.781Z,24.46
2022-09-10T16:39:17.590Z,24.37
2022-09-10T16:41:46.787Z,24.25
2022-09-10T16:44:16.752Z,24.20
2022-09-10T16:46:46.625Z,24.16
2022-09-10T16:49:18.224Z,24.20
2022-09-10T16:51:49.031Z,24.12
2022-09-10T16:54:19.970Z,23.98
2022-09-10T16:56:50.206Z,23.87
2022-09-10T16:59:20.340Z,23.67
2022-09-10T17:01:51.777Z,23.53
2022-09-10T17:04:26.337Z,23.41
2022-09-10T17:06:57.414Z,23.27
2022-09-10T17:09:25.950Z,23.13
2022-09-10T17:11:54.062Z,22.87
2022-09-10T17:14:22.161Z,22.78
2022-09-10T17:16:52.169Z,22.68
2022-09-10T17:19:23.622Z,22.60
2022-09-10T17:21:55.227Z,22.40
2022-09-10T17:24:26.220Z,22.35
2022-09-10T17:26:55.431Z,22.17
2022-09-10T17:29:25.543Z,22.17
2022-09-10T17:31:57.433Z,22.12
2022-09-10T17:34:27.170Z,21.97
2022-09-10T17:36:55.274Z,21.94
2022-09-10T17:39:23.407Z,21.95
2022-09-10T17:41:55.216Z,22.03
2022-09-10T17:44:24.370Z,21.97
2022-09-10T17:46:52.389Z,21.89
2022-09-10T17:49:21.822Z,21.82
2022-09-10T17:51:49.834Z,21.73
2022-09-10T17:54:18.316Z,21.66
2022-09-10T17:56:46.281Z,21.65
2022-09-10T17:59:15.052Z,21.56
2022-09-10T18:01:43.531Z,21.55
2022-09-10T18:04:14.364Z,21.52
2022-09-10T18:06:46.788Z,21.48
2022-09-10T18:09:17.451Z,21.52
2022-09-10T18:11:45.832Z,21.51
2022-09-10T18:14:18.473Z,21.37
2022-09-10T18:16:47.272Z,21.35
2022-09-10T18:19:17.650Z,21.41
2022-09-10T18:21:48.287Z,21.45
2022-09-10T18:24:18.103Z,21.43
2022-09-10T18:26:48.176Z,21.34
2022-09-10T18:29:18.967Z,21.27
2022-09-10T18:31:49.158Z,21.27
2022-09-10T18:34:22.962Z,21.19
2022-09-10T18:36:55.788Z,21.17
2022-09-10T18:39:24.919Z,21.02
2022-09-10T18:41:53.687Z,20.91
2022-09-10T18:44:24.139Z,20.82
2022-09-10T18:46:53.790Z,20.77
2022-09-10T18:49:24.368Z,20.69
2022-09-10T18:51:55.461Z,20.68
2022-09-10T18:54:24.841Z,20.56
2022-09-10T18:56:53.979Z,20.55
2022-09-10T18:59:24.207Z,20.52
2022-09-10T19:01:55.890Z,20.46
2022-09-10T19:04:25.727Z,20.43
2022-09-10T19:06:55.542Z,20.33
2022-09-10T19:09:25.225Z,20.29
2022-09-10T19:11:54.922Z,20.23
2022-09-10T19:14:26.326Z,20.16
2022-09-10T19:16:56.388Z,20.11
2022-09-10T19:19:28.176Z,20.07
2022-09-10T19:21:59.493Z,20.04
2022-09-10T19:24:50.900Z,20.01
2022-09-10T19:27:15.930Z,19.99
2022-09-10T19:29:44.459Z,19.97
2022-09-10T19:32:13.011Z,19.94
2022-09-10T19:34:41.339Z,19.90
2022-09-10T19:37:11.025Z,19.85
2022-09-10T19:39:39.529Z,19.85
2022-09-10T19:42:08.070Z,19.84
2022-09-10T19:44:36.062Z,19.82
2022-09-10T19:47:04.476Z,19.83
2022-09-10T19:49:34.155Z,19.82
2022-09-10T19:52:04.338Z,19.81
2022-09-10T19:54:33.817Z,19.81
2022-09-10T19:57:01.870Z,19.77
2022-09-10T19:59:29.876Z,19.81
2022-09-10T20:01:58.012Z,19.72
2022-09-10T20:04:27.650Z,19.68
2022-09-10T20:06:55.752Z,19.71
2022-09-10T20:09:23.714Z,19.76
2022-09-10T20:11:53.339Z,19.73
2022-09-10T20:14:21.388Z,19.62
2022-09-10T20:16:49.676Z,19.60
2022-09-10T20:19:20.289Z,19.59
2022-09-10T20:21:48.390Z,19.63
2022-09-10T20:24:17.553Z,19.62
2022-09-10T20:26:46.630Z,19.52
2022-09-10T20:29:17.985Z,19.56
2022-09-10T20:31:47.561Z,19.46
2022-09-10T20:34:17.900Z,19.34
2022-09-10T20:36:52.179Z,19.42
2022-09-10T20:39:42.485Z,19.44
2022-09-10T20:42:34.955Z,19.32
2022-09-10T20:45:29.544Z,19.22
2022-09-10T20:48:14.311Z,19.24
2022-09-10T20:51:01.495Z,19.22
2022-09-10T20:53:54.290Z,19.08
2022-09-10T20:56:58.154Z,19.17
2022-09-10T20:59:56.060Z,19.16
2022-09-10T21:02:56.794Z,19.06
2022-09-10T21:05:37.562Z,19.03
2022-09-10T21:08:09.894Z,19.01
2022-09-10T21:10:40.405Z,19.00
2022-09-10T21:13:16.311Z,18.97
2022-09-10T21:15:51.131Z,18.91
2022-09-10T21:18:42.402Z,18.80
2022-09-10T21:21:16.343Z,18.73
2022-09-10T21:26:48.328Z,18.64
2022-09-10T21:29:25.830Z,18.62
2022-09-10T21:32:01.360Z,18.64
2022-09-10T21:34:34.152Z,18.69
2022-09-10T21:37:04.737Z,18.71
2022-09-10T21:39:33.382Z,18.69
2022-09-10T21:42:02.160Z,18.71
2022-09-10T21:44:32.250Z,18.75
2022-09-10T21:47:00.266Z,18.80
2022-09-10T21:49:28.302Z,18.79
2022-09-10T21:51:57.650Z,18.72
2022-09-10T21:54:26.112Z,18.67
2022-09-10T21:56:54.172Z,18.64
2022-09-10T21:59:22.260Z,18.57
2022-09-10T22:01:50.515Z,18.53
2022-09-10T22:04:22.445Z,18.52
2022-09-10T22:06:51.248Z,18.50
2022-09-10T22:09:21.369Z,18.48
2022-09-10T22:11:52.006Z,18.46
2022-09-10T22:14:22.041Z,18.45
2022-09-10T22:16:50.258Z,18.43
2022-09-10T22:19:20.246Z,18.48
2022-09-10T22:21:48.281Z,18.49
2022-09-10T22:24:18.221Z,18.52
2022-09-10T22:26:48.464Z,18.42
2022-09-10T22:29:18.829Z,18.35
2022-09-10T22:31:47.652Z,18.40
2022-09-10T22:34:17.460Z,18.34
2022-09-10T22:36:46.785Z,18.34
2022-09-10T22:39:17.644Z,18.33
2022-09-10T22:41:47.454Z,18.31
2022-09-10T22:44:17.731Z,18.27
2022-09-10T22:46:45.864Z,18.16
2022-09-10T22:49:16.024Z,18.13
2022-09-10T22:51:44.622Z,17.98
2022-09-10T22:54:12.796Z,17.80
2022-09-10T22:56:42.066Z,17.73
2022-09-10T22:59:14.659Z,17.70
2022-09-10T23:01:45.988Z,17.62
2022-09-10T23:04:14.449Z,17.56
2022-09-10T23:06:42.632Z,17.52
2022-09-10T23:09:13.643Z,17.49
2022-09-10T23:11:42.807Z,17.45
2022-09-10T23:14:15.548Z,17.44
2022-09-10T23:16:46.690Z,17.44
2022-09-10T23:19:16.733Z,17.49
2022-09-10T23:21:46.564Z,17.50
2022-09-10T23:24:16.359Z,17.49
2022-09-10T23:26:45.229Z,17.50
2022-09-10T23:29:17.328Z,17.52
2022-09-10T23:31:47.843Z,17.38
2022-09-10T23:34:18.291Z,17.34
2022-09-10T23:36:48.074Z,17.22
2022-09-10T23:39:18.713Z,17.19
2022-09-10T23:41:47.361Z,17.19
2022-09-10T23:44:17.411Z,17.12
2022-09-10T23:46:45.702Z,17.13
2022-09-10T23:49:14.039Z,16.99
2022-09-10T23:51:42.098Z,16.99
2022-09-10T23:54:11.239Z,16.98
2022-09-10T23:56:40.028Z,17.01
2022-09-10T23:59:08.676Z,16.92
